sensor_id;sensor_type;location;lat;lon;timestamp;P1;durP1;ratioP1;P2;durP2;ratioP2
46391;SDS011;32098;49.448;7.904;2024-01-30T00:01:57;17.90;;;13.10;;
46391;SDS011;32098;49.448;7.904;2024-01-30T00:04:24;17.87;;;12.00;;
46391;SDS011;32098;49.448;7.904;2024-01-30T00:06:51;17.10;;;12.10;;
46391;SDS011;32098;49.448;7.904;2024-01-30T00:09:19;15.97;;;11.67;;
46391;SDS011;32098;49.448;7.904;2024-01-30T00:11:45;15.00;;;10.23;;
46391;SDS011;32098;49.448;7.904;2024-01-30T00:14:12;13.70;;;10.03;;
46391;SDS011;32098;49.448;7.904;2024-01-30T00:16:39;15.13;;;9.63;;
46391;SDS011;32098;49.448;7.904;2024-01-30T00:19:06;13.37;;;9.80;;
46391;SDS011;32098;49.448;7.904;2024-01-30T00:21:35;13.47;;;9.83;;
46391;SDS011;32098;49.448;7.904;2024-01-30T00:24:02;14.70;;;10.67;;
46391;SDS011;32098;49.448;7.904;2024-01-30T00:26:29;15.83;;;10.87;;
46391;SDS011;32098;49.448;7.904;2024-01-30T00:28:55;15.90;;;11.27;;
46391;SDS011;32098;49.448;7.904;2024-01-30T00:31:22;18.27;;;11.83;;
46391;SDS011;32098;49.448;7.904;2024-01-30T00:33:49;14.40;;;11.27;;
46391;SDS011;32098;49.448;7.904;2024-01-30T00:36:15;12.57;;;10.20;;
46391;SDS011;32098;49.448;7.904;2024-01-30T00:38:42;17.07;;;10.77;;
46391;SDS011;32098;49.448;7.904;2024-01-30T00:41:09;14.30;;;10.60;;
46391;SDS011;32098;49.448;7.904;2024-01-30T00:43:36;14.73;;;10.47;;
46391;SDS011;32098;49.448;7.904;2024-01-30T00:46:03;12.57;;;9.73;;
46391;SDS011;32098;49.448;7.904;2024-01-30T00:48:30;14.33;;;10.93;;
46391;SDS011;32098;49.448;7.904;2024-01-30T00:50:56;17.70;;;10.63;;
46391;SDS011;32098;49.448;7.904;2024-01-30T00:53:23;15.77;;;10.90;;
46391;SDS011;32098;49.448;7.904;2024-01-30T00:55:49;16.93;;;12.50;;
46391;SDS011;32098;49.448;7.904;2024-01-30T00:58:16;17.27;;;11.17;;
46391;SDS011;32098;49.448;7.904;2024-01-30T01:00:43;15.67;;;11.67;;
46391;SDS011;32098;49.448;7.904;2024-01-30T01:03:10;14.40;;;11.33;;
46391;SDS011;32098;49.448;7.904;2024-01-30T01:05:36;13.70;;;10.23;;
46391;SDS011;32098;49.448;7.904;2024-01-30T01:08:03;13.87;;;9.83;;
46391;SDS011;32098;49.448;7.904;2024-01-30T01:10:30;11.87;;;8.93;;
46391;SDS011;32098;49.448;7.904;2024-01-30T01:12:57;11.83;;;8.63;;
46391;SDS011;32098;49.448;7.904;2024-01-30T01:15:24;10.47;;;7.60;;
46391;SDS011;32098;49.448;7.904;2024-01-30T01:17:55;9.17;;;7.03;;
46391;SDS011;32098;49.448;7.904;2024-01-30T01:20:21;9.00;;;7.23;;
46391;SDS011;32098;49.448;7.904;2024-01-30T01:22:48;10.47;;;7.93;;
46391;SDS011;32098;49.448;7.904;2024-01-30T01:25:15;10.90;;;7.50;;
46391;SDS011;32098;49.448;7.904;2024-01-30T01:27:42;11.73;;;8.20;;
46391;SDS011;32098;49.448;7.904;2024-01-30T01:30:10;9.53;;;7.40;;
46391;SDS011;32098;49.448;7.904;2024-01-30T01:32:37;11.50;;;7.80;;
46391;SDS011;32098;49.448;7.904;2024-01-30T01:35:05;14.87;;;10.03;;
46391;SDS011;32098;49.448;7.904;2024-01-30T01:37:32;15.57;;;11.33;;
46391;SDS011;32098;49.448;7.904;2024-01-30T01:39:59;13.63;;;10.00;;
46391;SDS011;32098;49.448;7.904;2024-01-30T01:42:26;14.20;;;9.10;;
46391;SDS011;32098;49.448;7.904;2024-01-30T01:44:53;11.60;;;8.53;;
46391;SDS011;32098;49.448;7.904;2024-01-30T01:47:19;13.00;;;8.63;;
46391;SDS011;32098;49.448;7.904;2024-01-30T01:49:46;11.63;;;8.60;;
46391;SDS011;32098;49.448;7.904;2024-01-30T01:52:14;11.87;;;8.03;;
46391;SDS011;32098;49.448;7.904;2024-01-30T01:54:41;10.57;;;7.93;;
46391;SDS011;32098;49.448;7.904;2024-01-30T01:57:08;11.27;;;7.93;;
46391;SDS011;32098;49.448;7.904;2024-01-30T01:59:35;13.70;;;8.53;;
46391;SDS011;32098;49.448;7.904;2024-01-30T02:02:02;11.63;;;8.13;;
46391;SDS011;32098;49.448;7.904;2024-01-30T02:04:30;10.47;;;8.20;;
46391;SDS011;32098;49.448;7.904;2024-01-30T02:06:57;13.67;;;8.50;;
46391;SDS011;32098;49.448;7.904;2024-01-30T02:09:23;11.53;;;8.80;;
46391;SDS011;32098;49.448;7.904;2024-01-30T02:11:50;9.93;;;8.17;;
46391;SDS011;32098;49.448;7.904;2024-01-30T02:14:17;12.27;;;8.30;;
46391;SDS011;32098;49.448;7.904;2024-01-30T02:16:44;10.63;;;8.23;;
46391;SDS011;32098;49.448;7.904;2024-01-30T02:19:10;10.97;;;8.10;;
46391;SDS011;32098;49.448;7.904;2024-01-30T02:21:37;14.23;;;8.60;;
46391;SDS011;32098;49.448;7.904;2024-01-30T02:24:05;12.37;;;8.93;;
46391;SDS011;32098;49.448;7.904;2024-01-30T02:26:32;13.90;;;9.07;;
46391;SDS011;32098;49.448;7.904;2024-01-30T02:28:58;11.80;;;8.17;;
46391;SDS011;32098;49.448;7.904;2024-01-30T02:31:25;10.57;;;8.27;;
46391;SDS011;32098;49.448;7.904;2024-01-30T02:33:52;11.70;;;8.20;;
46391;SDS011;32098;49.448;7.904;2024-01-30T02:36:19;12.10;;;8.23;;
46391;SDS011;32098;49.448;7.904;2024-01-30T02:38:46;8.77;;;7.47;;
46391;SDS011;32098;49.448;7.904;2024-01-30T02:41:13;9.83;;;7.13;;
46391;SDS011;32098;49.448;7.904;2024-01-30T02:43:40;9.60;;;7.80;;
46391;SDS011;32098;49.448;7.904;2024-01-30T02:46:07;11.93;;;7.70;;
46391;SDS011;32098;49.448;7.904;2024-01-30T02:48:33;11.50;;;8.23;;
46391;SDS011;32098;49.448;7.904;2024-01-30T02:51:00;10.07;;;7.27;;
46391;SDS011;32098;49.448;7.904;2024-01-30T02:53:26;11.80;;;7.90;;
46391;SDS011;32098;49.448;7.904;2024-01-30T02:55:53;10.03;;;7.33;;
46391;SDS011;32098;49.448;7.904;2024-01-30T02:58:20;10.73;;;7.50;;
46391;SDS011;32098;49.448;7.904;2024-01-30T03:00:49;11.93;;;7.13;;
46391;SDS011;32098;49.448;7.904;2024-01-30T03:03:16;10.87;;;7.67;;
46391;SDS011;32098;49.448;7.904;2024-01-30T03:05:42;12.57;;;7.90;;
46391;SDS011;32098;49.448;7.904;2024-01-30T03:08:09;12.40;;;8.30;;
46391;SDS011;32098;49.448;7.904;2024-01-30T03:10:36;11.33;;;7.60;;
46391;SDS011;32098;49.448;7.904;2024-01-30T03:13:03;10.57;;;7.30;;
46391;SDS011;32098;49.448;7.904;2024-01-30T03:15:30;11.80;;;7.33;;
46391;SDS011;32098;49.448;7.904;2024-01-30T03:17:56;10.13;;;7.10;;
46391;SDS011;32098;49.448;7.904;2024-01-30T03:20:23;10.73;;;7.17;;
46391;SDS011;32098;49.448;7.904;2024-01-30T03:22:50;9.97;;;7.30;;
46391;SDS011;32098;49.448;7.904;2024-01-30T03:25:17;10.43;;;7.47;;
46391;SDS011;32098;49.448;7.904;2024-01-30T03:27:43;11.90;;;7.83;;
46391;SDS011;32098;49.448;7.904;2024-01-30T03:30:10;11.80;;;7.83;;
46391;SDS011;32098;49.448;7.904;2024-01-30T03:32:37;10.93;;;7.70;;
46391;SDS011;32098;49.448;7.904;2024-01-30T03:35:04;10.70;;;7.50;;
46391;SDS011;32098;49.448;7.904;2024-01-30T03:37:31;9.20;;;6.90;;
46391;SDS011;32098;49.448;7.904;2024-01-30T03:39:57;10.70;;;7.03;;
46391;SDS011;32098;49.448;7.904;2024-01-30T03:42:24;9.70;;;7.37;;
46391;SDS011;32098;49.448;7.904;2024-01-30T03:44:51;10.50;;;7.60;;
46391;SDS011;32098;49.448;7.904;2024-01-30T03:47:19;10.77;;;7.37;;
46391;SDS011;32098;49.448;7.904;2024-01-30T03:49:46;12.43;;;7.10;;
46391;SDS011;32098;49.448;7.904;2024-01-30T03:52:13;8.93;;;6.93;;
46391;SDS011;32098;49.448;7.904;2024-01-30T03:54:40;10.03;;;7.10;;
46391;SDS011;32098;49.448;7.904;2024-01-30T03:57:06;13.40;;;8.40;;
46391;SDS011;32098;49.448;7.904;2024-01-30T03:59:33;10.43;;;7.77;;
46391;SDS011;32098;49.448;7.904;2024-01-30T04:02:00;11.60;;;8.03;;
46391;SDS011;32098;49.448;7.904;2024-01-30T04:04:27;11.47;;;7.57;;
46391;SDS011;32098;49.448;7.904;2024-01-30T04:06:54;11.03;;;7.73;;
46391;SDS011;32098;49.448;7.904;2024-01-30T04:09:21;11.47;;;8.37;;
46391;SDS011;32098;49.448;7.904;2024-01-30T04:11:48;12.03;;;7.43;;
46391;SDS011;32098;49.448;7.904;2024-01-30T04:14:14;10.63;;;7.43;;
46391;SDS011;32098;49.448;7.904;2024-01-30T04:16:41;11.87;;;8.07;;
46391;SDS011;32098;49.448;7.904;2024-01-30T04:19:08;13.40;;;7.80;;
46391;SDS011;32098;49.448;7.904;2024-01-30T04:21:35;10.07;;;7.77;;
46391;SDS011;32098;49.448;7.904;2024-01-30T04:24:01;11.33;;;7.83;;
46391;SDS011;32098;49.448;7.904;2024-01-30T04:26:28;11.47;;;8.53;;
46391;SDS011;32098;49.448;7.904;2024-01-30T04:28:54;14.10;;;8.87;;
46391;SDS011;32098;49.448;7.904;2024-01-30T04:31:21;13.97;;;9.67;;
46391;SDS011;32098;49.448;7.904;2024-01-30T04:33:48;11.67;;;9.33;;
46391;SDS011;32098;49.448;7.904;2024-01-30T04:36:15;13.20;;;9.20;;
46391;SDS011;32098;49.448;7.904;2024-01-30T04:38:41;12.20;;;8.40;;
46391;SDS011;32098;49.448;7.904;2024-01-30T04:41:08;12.57;;;9.30;;
46391;SDS011;32098;49.448;7.904;2024-01-30T04:43:34;11.93;;;8.33;;
46391;SDS011;32098;49.448;7.904;2024-01-30T04:46:01;12.53;;;8.87;;
46391;SDS011;32098;49.448;7.904;2024-01-30T04:48:28;13.20;;;8.40;;
46391;SDS011;32098;49.448;7.904;2024-01-30T04:50:55;11.53;;;8.57;;
46391;SDS011;32098;49.448;7.904;2024-01-30T04:53:22;13.43;;;8.90;;
46391;SDS011;32098;49.448;7.904;2024-01-30T04:55:50;12.20;;;8.83;;
46391;SDS011;32098;49.448;7.904;2024-01-30T04:58:16;13.50;;;9.50;;
46391;SDS011;32098;49.448;7.904;2024-01-30T05:00:43;13.63;;;9.47;;
46391;SDS011;32098;49.448;7.904;2024-01-30T05:03:10;12.17;;;8.87;;
46391;SDS011;32098;49.448;7.904;2024-01-30T05:05:36;12.17;;;9.10;;
46391;SDS011;32098;49.448;7.904;2024-01-30T05:08:03;12.27;;;8.90;;
46391;SDS011;32098;49.448;7.904;2024-01-30T05:10:30;13.80;;;9.70;;
46391;SDS011;32098;49.448;7.904;2024-01-30T05:12:57;12.17;;;9.20;;
46391;SDS011;32098;49.448;7.904;2024-01-30T05:15:23;12.70;;;9.47;;
46391;SDS011;32098;49.448;7.904;2024-01-30T05:17:50;15.67;;;9.50;;
46391;SDS011;32098;49.448;7.904;2024-01-30T05:20:17;13.80;;;9.57;;
46391;SDS011;32098;49.448;7.904;2024-01-30T05:22:44;13.27;;;8.73;;
46391;SDS011;32098;49.448;7.904;2024-01-30T05:25:14;11.60;;;9.00;;
46391;SDS011;32098;49.448;7.904;2024-01-30T05:27:41;11.87;;;9.13;;
46391;SDS011;32098;49.448;7.904;2024-01-30T05:30:08;10.97;;;8.53;;
46391;SDS011;32098;49.448;7.904;2024-01-30T05:32:35;13.00;;;9.60;;
46391;SDS011;32098;49.448;7.904;2024-01-30T05:35:02;14.33;;;10.13;;
46391;SDS011;32098;49.448;7.904;2024-01-30T05:37:29;14.47;;;11.13;;
46391;SDS011;32098;49.448;7.904;2024-01-30T05:39:56;14.47;;;11.47;;
46391;SDS011;32098;49.448;7.904;2024-01-30T05:42:23;16.63;;;12.10;;
46391;SDS011;32098;49.448;7.904;2024-01-30T05:44:49;14.67;;;11.67;;
46391;SDS011;32098;49.448;7.904;2024-01-30T05:47:16;14.97;;;11.00;;
46391;SDS011;32098;49.448;7.904;2024-01-30T05:49:43;19.67;;;12.53;;
46391;SDS011;32098;49.448;7.904;2024-01-30T05:52:09;17.20;;;8.93;;
46391;SDS011;32098;49.448;7.904;2024-01-30T05:54:36;12.90;;;9.57;;
46391;SDS011;32098;49.448;7.904;2024-01-30T05:57:03;14.40;;;10.10;;
46391;SDS011;32098;49.448;7.904;2024-01-30T05:59:30;12.77;;;8.80;;
46391;SDS011;32098;49.448;7.904;2024-01-30T06:01:56;8.70;;;6.57;;
46391;SDS011;32098;49.448;7.904;2024-01-30T06:04:23;8.60;;;6.03;;
46391;SDS011;32098;49.448;7.904;2024-01-30T06:06:50;7.50;;;6.20;;
46391;SDS011;32098;49.448;7.904;2024-01-30T06:09:17;8.87;;;7.00;;
46391;SDS011;32098;49.448;7.904;2024-01-30T06:11:44;7.53;;;6.33;;
46391;SDS011;32098;49.448;7.904;2024-01-30T06:14:11;9.70;;;6.53;;
46391;SDS011;32098;49.448;7.904;2024-01-30T06:16:38;7.10;;;6.00;;
46391;SDS011;32098;49.448;7.904;2024-01-30T06:19:04;7.60;;;6.47;;
46391;SDS011;32098;49.448;7.904;2024-01-30T06:21:32;9.50;;;6.67;;
46391;SDS011;32098;49.448;7.904;2024-01-30T06:24:03;14.67;;;10.73;;
46391;SDS011;32098;49.448;7.904;2024-01-30T06:26:29;19.07;;;12.10;;
46391;SDS011;32098;49.448;7.904;2024-01-30T06:28:56;15.53;;;9.70;;
46391;SDS011;32098;49.448;7.904;2024-01-30T06:31:23;11.70;;;9.10;;
46391;SDS011;32098;49.448;7.904;2024-01-30T06:33:49;12.73;;;9.97;;
46391;SDS011;32098;49.448;7.904;2024-01-30T06:36:16;10.67;;;8.57;;
46391;SDS011;32098;49.448;7.904;2024-01-30T06:38:43;12.23;;;9.30;;
46391;SDS011;32098;49.448;7.904;2024-01-30T06:41:09;11.57;;;9.13;;
46391;SDS011;32098;49.448;7.904;2024-01-30T06:43:36;13.33;;;9.20;;
46391;SDS011;32098;49.448;7.904;2024-01-30T06:46:03;10.17;;;8.73;;
46391;SDS011;32098;49.448;7.904;2024-01-30T06:48:30;11.17;;;8.27;;
46391;SDS011;32098;49.448;7.904;2024-01-30T06:50:56;11.50;;;7.53;;
46391;SDS011;32098;49.448;7.904;2024-01-30T06:53:24;10.70;;;7.60;;
46391;SDS011;32098;49.448;7.904;2024-01-30T06:55:52;10.83;;;7.60;;
46391;SDS011;32098;49.448;7.904;2024-01-30T06:58:18;12.40;;;8.90;;
46391;SDS011;32098;49.448;7.904;2024-01-30T07:00:45;10.83;;;7.80;;
46391;SDS011;32098;49.448;7.904;2024-01-30T07:03:12;12.07;;;8.30;;
46391;SDS011;32098;49.448;7.904;2024-01-30T07:05:38;12.03;;;8.63;;
46391;SDS011;32098;49.448;7.904;2024-01-30T07:08:05;12.20;;;8.83;;
46391;SDS011;32098;49.448;7.904;2024-01-30T07:10:32;14.27;;;8.33;;
46391;SDS011;32098;49.448;7.904;2024-01-30T07:13:00;12.03;;;8.50;;
46391;SDS011;32098;49.448;7.904;2024-01-30T07:15:27;12.37;;;8.70;;
46391;SDS011;32098;49.448;7.904;2024-01-30T07:17:54;15.07;;;9.13;;
46391;SDS011;32098;49.448;7.904;2024-01-30T07:20:20;12.90;;;8.70;;
46391;SDS011;32098;49.448;7.904;2024-01-30T07:22:47;15.60;;;11.67;;
46391;SDS011;32098;49.448;7.904;2024-01-30T07:25:14;14.67;;;11.03;;
46391;SDS011;32098;49.448;7.904;2024-01-30T07:27:41;13.30;;;10.13;;
46391;SDS011;32098;49.448;7.904;2024-01-30T07:30:08;14.40;;;9.90;;
46391;SDS011;32098;49.448;7.904;2024-01-30T07:32:35;13.20;;;10.03;;
46391;SDS011;32098;49.448;7.904;2024-01-30T07:35:02;14.53;;;9.63;;
46391;SDS011;32098;49.448;7.904;2024-01-30T07:37:34;11.80;;;9.47;;
46391;SDS011;32098;49.448;7.904;2024-01-30T07:40:02;14.10;;;9.63;;
46391;SDS011;32098;49.448;7.904;2024-01-30T07:42:30;12.77;;;10.00;;
46391;SDS011;32098;49.448;7.904;2024-01-30T07:44:57;17.10;;;12.20;;
46391;SDS011;32098;49.448;7.904;2024-01-30T07:47:23;14.83;;;10.13;;
46391;SDS011;32098;49.448;7.904;2024-01-30T07:49:50;16.43;;;10.30;;
46391;SDS011;32098;49.448;7.904;2024-01-30T07:52:17;12.87;;;8.77;;
46391;SDS011;32098;49.448;7.904;2024-01-30T07:54:44;18.47;;;12.87;;
46391;SDS011;32098;49.448;7.904;2024-01-30T07:57:11;16.10;;;10.87;;
46391;SDS011;32098;49.448;7.904;2024-01-30T07:59:38;23.07;;;17.10;;
46391;SDS011;32098;49.448;7.904;2024-01-30T08:02:04;27.20;;;18.73;;
46391;SDS011;32098;49.448;7.904;2024-01-30T08:04:31;20.73;;;16.37;;
46391;SDS011;32098;49.448;7.904;2024-01-30T08:06:58;21.40;;;16.20;;
46391;SDS011;32098;49.448;7.904;2024-01-30T08:09:25;17.43;;;14.13;;
46391;SDS011;32098;49.448;7.904;2024-01-30T08:11:52;19.53;;;13.63;;
46391;SDS011;32098;49.448;7.904;2024-01-30T08:14:19;17.20;;;13.03;;
46391;SDS011;32098;49.448;7.904;2024-01-30T08:16:45;18.20;;;13.90;;
46391;SDS011;32098;49.448;7.904;2024-01-30T08:19:12;19.33;;;15.87;;
46391;SDS011;32098;49.448;7.904;2024-01-30T08:21:38;21.43;;;16.53;;
46391;SDS011;32098;49.448;7.904;2024-01-30T08:24:05;24.03;;;16.83;;
46391;SDS011;32098;49.448;7.904;2024-01-30T08:26:33;24.10;;;17.00;;
46391;SDS011;32098;49.448;7.904;2024-01-30T08:29:01;23.77;;;17.17;;
46391;SDS011;32098;49.448;7.904;2024-01-30T08:31:28;21.40;;;15.47;;
46391;SDS011;32098;49.448;7.904;2024-01-30T08:33:55;21.77;;;16.07;;
46391;SDS011;32098;49.448;7.904;2024-01-30T08:36:22;22.30;;;15.30;;
46391;SDS011;32098;49.448;7.904;2024-01-30T08:38:48;21.63;;;17.03;;
46391;SDS011;32098;49.448;7.904;2024-01-30T08:41:15;22.93;;;15.73;;
46391;SDS011;32098;49.448;7.904;2024-01-30T08:43:42;17.50;;;13.00;;
46391;SDS011;32098;49.448;7.904;2024-01-30T08:46:08;18.90;;;13.50;;
46391;SDS011;32098;49.448;7.904;2024-01-30T08:48:35;19.63;;;11.53;;
46391;SDS011;32098;49.448;7.904;2024-01-30T08:51:02;16.10;;;12.43;;
46391;SDS011;32098;49.448;7.904;2024-01-30T08:53:29;13.57;;;9.67;;
46391;SDS011;32098;49.448;7.904;2024-01-30T08:55:56;12.73;;;9.30;;
46391;SDS011;32098;49.448;7.904;2024-01-30T08:58:25;19.87;;;13.63;;
46391;SDS011;32098;49.448;7.904;2024-01-30T09:00:52;20.77;;;15.97;;
46391;SDS011;32098;49.448;7.904;2024-01-30T09:03:19;19.27;;;13.57;;
46391;SDS011;32098;49.448;7.904;2024-01-30T09:05:46;16.00;;;12.00;;
46391;SDS011;32098;49.448;7.904;2024-01-30T09:08:12;18.77;;;14.13;;
46391;SDS011;32098;49.448;7.904;2024-01-30T09:10:39;20.97;;;15.87;;
46391;SDS011;32098;49.448;7.904;2024-01-30T09:13:07;21.97;;;15.33;;
46391;SDS011;32098;49.448;7.904;2024-01-30T09:15:34;20.07;;;14.70;;
46391;SDS011;32098;49.448;7.904;2024-01-30T09:18:01;22.33;;;15.37;;
46391;SDS011;32098;49.448;7.904;2024-01-30T09:20:28;20.03;;;13.93;;
46391;SDS011;32098;49.448;7.904;2024-01-30T09:23:00;17.33;;;12.83;;
46391;SDS011;32098;49.448;7.904;2024-01-30T09:25:26;16.37;;;11.23;;
46391;SDS011;32098;49.448;7.904;2024-01-30T09:27:53;14.47;;;10.57;;
46391;SDS011;32098;49.448;7.904;2024-01-30T09:30:20;15.70;;;11.80;;
46391;SDS011;32098;49.448;7.904;2024-01-30T09:32:47;16.80;;;10.87;;
46391;SDS011;32098;49.448;7.904;2024-01-30T09:35:13;15.20;;;11.33;;
46391;SDS011;32098;49.448;7.904;2024-01-30T09:37:40;17.37;;;13.93;;
46391;SDS011;32098;49.448;7.904;2024-01-30T09:40:07;17.00;;;10.53;;
46391;SDS011;32098;49.448;7.904;2024-01-30T09:42:35;18.87;;;10.30;;
46391;SDS011;32098;49.448;7.904;2024-01-30T09:45:03;16.10;;;9.93;;
46391;SDS011;32098;49.448;7.904;2024-01-30T09:47:41;13.53;;;8.60;;
46391;SDS011;32098;49.448;7.904;2024-01-30T09:50:13;11.77;;;8.50;;
46391;SDS011;32098;49.448;7.904;2024-01-30T09:52:42;13.00;;;8.53;;
46391;SDS011;32098;49.448;7.904;2024-01-30T09:55:10;11.80;;;8.03;;
46391;SDS011;32098;49.448;7.904;2024-01-30T09:57:37;10.80;;;7.07;;
46391;SDS011;32098;49.448;7.904;2024-01-30T10:00:04;11.17;;;7.70;;
46391;SDS011;32098;49.448;7.904;2024-01-30T10:02:39;13.13;;;8.73;;
46391;SDS011;32098;49.448;7.904;2024-01-30T10:05:07;11.07;;;7.93;;
46391;SDS011;32098;49.448;7.904;2024-01-30T10:07:34;13.80;;;8.80;;
46391;SDS011;32098;49.448;7.904;2024-01-30T10:10:01;13.17;;;8.83;;
46391;SDS011;32098;49.448;7.904;2024-01-30T10:12:29;15.50;;;10.40;;
46391;SDS011;32098;49.448;7.904;2024-01-30T10:14:56;14.90;;;9.23;;
46391;SDS011;32098;49.448;7.904;2024-01-30T10:17:25;15.30;;;8.87;;
46391;SDS011;32098;49.448;7.904;2024-01-30T10:19:59;13.13;;;7.57;;
46391;SDS011;32098;49.448;7.904;2024-01-30T10:22:27;11.33;;;7.47;;
46391;SDS011;32098;49.448;7.904;2024-01-30T10:24:54;11.20;;;7.80;;
46391;SDS011;32098;49.448;7.904;2024-01-30T10:27:25;10.60;;;7.50;;
46391;SDS011;32098;49.448;7.904;2024-01-30T10:29:53;9.67;;;7.20;;
46391;SDS011;32098;49.448;7.904;2024-01-30T10:32:20;10.50;;;7.03;;
46391;SDS011;32098;49.448;7.904;2024-01-30T10:34:47;9.77;;;7.10;;
46391;SDS011;32098;49.448;7.904;2024-01-30T10:37:15;8.97;;;6.40;;
46391;SDS011;32098;49.448;7.904;2024-01-30T10:39:43;8.43;;;5.57;;
46391;SDS011;32098;49.448;7.904;2024-01-30T10:42:12;6.10;;;5.30;;
46391;SDS011;32098;49.448;7.904;2024-01-30T10:48:03;7.17;;;5.20;;
46391;SDS011;32098;49.448;7.904;2024-01-30T10:50:31;8.47;;;5.20;;
46391;SDS011;32098;49.448;7.904;2024-01-30T10:52:59;8.13;;;4.93;;
46391;SDS011;32098;49.448;7.904;2024-01-30T10:55:27;9.50;;;5.40;;
46391;SDS011;32098;49.448;7.904;2024-01-30T10:57:56;9.77;;;6.40;;
46391;SDS011;32098;49.448;7.904;2024-01-30T11:00:22;9.63;;;5.83;;
46391;SDS011;32098;49.448;7.904;2024-01-30T11:02:50;6.73;;;5.37;;
46391;SDS011;32098;49.448;7.904;2024-01-30T11:05:24;9.70;;;5.60;;
46391;SDS011;32098;49.448;7.904;2024-01-30T11:07:58;11.33;;;6.43;;
46391;SDS011;32098;49.448;7.904;2024-01-30T11:10:25;9.40;;;6.00;;
46391;SDS011;32098;49.448;7.904;2024-01-30T11:12:52;10.50;;;6.43;;
46391;SDS011;32098;49.448;7.904;2024-01-30T11:15:18;9.83;;;5.57;;
46391;SDS011;32098;49.448;7.904;2024-01-30T11:17:50;8.40;;;5.97;;
46391;SDS011;32098;49.448;7.904;2024-01-30T11:20:21;9.03;;;5.43;;
46391;SDS011;32098;49.448;7.904;2024-01-30T11:22:51;7.73;;;4.80;;
46391;SDS011;32098;49.448;7.904;2024-01-30T11:25:20;6.93;;;4.67;;
46391;SDS011;32098;49.448;7.904;2024-01-30T11:27:49;7.33;;;5.20;;
46391;SDS011;32098;49.448;7.904;2024-01-30T11:30:30;7.33;;;4.87;;
46391;SDS011;32098;49.448;7.904;2024-01-30T11:33:02;7.57;;;6.03;;
46391;SDS011;32098;49.448;7.904;2024-01-30T11:35:43;8.20;;;6.07;;
46391;SDS011;32098;49.448;7.904;2024-01-30T11:38:13;9.23;;;6.80;;
46391;SDS011;32098;49.448;7.904;2024-01-30T11:40:40;8.20;;;5.60;;
46391;SDS011;32098;49.448;7.904;2024-01-30T11:43:08;5.80;;;4.87;;
46391;SDS011;32098;49.448;7.904;2024-01-30T11:45:36;7.80;;;5.20;;
46391;SDS011;32098;49.448;7.904;2024-01-30T11:48:03;7.17;;;5.23;;
46391;SDS011;32098;49.448;7.904;2024-01-30T11:50:34;6.50;;;4.73;;
46391;SDS011;32098;49.448;7.904;2024-01-30T11:53:02;6.90;;;5.10;;
46391;SDS011;32098;49.448;7.904;2024-01-30T11:55:29;7.47;;;4.50;;
46391;SDS011;32098;49.448;7.904;2024-01-30T11:58:00;9.27;;;5.23;;
46391;SDS011;32098;49.448;7.904;2024-01-30T12:00:27;6.77;;;5.10;;
46391;SDS011;32098;49.448;7.904;2024-01-30T12:02:55;7.20;;;5.17;;
46391;SDS011;32098;49.448;7.904;2024-01-30T12:05:23;11.40;;;5.43;;
46391;SDS011;32098;49.448;7.904;2024-01-30T12:07:50;8.57;;;5.03;;
46391;SDS011;32098;49.448;7.904;2024-01-30T12:10:17;8.77;;;5.83;;
46391;SDS011;32098;49.448;7.904;2024-01-30T12:12:46;10.80;;;7.47;;
46391;SDS011;32098;49.448;7.904;2024-01-30T12:15:14;9.03;;;6.43;;
46391;SDS011;32098;49.448;7.904;2024-01-30T12:17:42;10.33;;;7.80;;
46391;SDS011;32098;49.448;7.904;2024-01-30T12:22:37;13.27;;;7.93;;
46391;SDS011;32098;49.448;7.904;2024-01-30T12:25:07;7.13;;;5.70;;
46391;SDS011;32098;49.448;7.904;2024-01-30T12:27:35;6.50;;;5.43;;
46391;SDS011;32098;49.448;7.904;2024-01-30T12:30:08;8.60;;;5.03;;
46391;SDS011;32098;49.448;7.904;2024-01-30T12:32:37;8.63;;;5.47;;
46391;SDS011;32098;49.448;7.904;2024-01-30T12:35:09;10.13;;;7.90;;
46391;SDS011;32098;49.448;7.904;2024-01-30T12:37:43;9.43;;;7.30;;
46391;SDS011;32098;49.448;7.904;2024-01-30T12:40:11;8.13;;;5.43;;
46391;SDS011;32098;49.448;7.904;2024-01-30T12:42:41;6.60;;;4.93;;
46391;SDS011;32098;49.448;7.904;2024-01-30T12:45:18;7.80;;;4.93;;
46391;SDS011;32098;49.448;7.904;2024-01-30T12:47:49;6.10;;;4.60;;
46391;SDS011;32098;49.448;7.904;2024-01-30T12:50:16;7.17;;;4.80;;
46391;SDS011;32098;49.448;7.904;2024-01-30T12:52:43;7.37;;;4.97;;
46391;SDS011;32098;49.448;7.904;2024-01-30T12:55:14;10.03;;;7.43;;
46391;SDS011;32098;49.448;7.904;2024-01-30T12:57:40;7.23;;;5.47;;
46391;SDS011;32098;49.448;7.904;2024-01-30T13:00:08;9.23;;;5.10;;
46391;SDS011;32098;49.448;7.904;2024-01-30T13:02:35;7.57;;;5.67;;
46391;SDS011;32098;49.448;7.904;2024-01-30T13:05:03;10.20;;;5.63;;
46391;SDS011;32098;49.448;7.904;2024-01-30T13:07:31;7.40;;;4.90;;
46391;SDS011;32098;49.448;7.904;2024-01-30T13:09:57;8.43;;;5.40;;
46391;SDS011;32098;49.448;7.904;2024-01-30T13:12:30;6.60;;;5.10;;
46391;SDS011;32098;49.448;7.904;2024-01-30T13:14:59;6.67;;;5.30;;
46391;SDS011;32098;49.448;7.904;2024-01-30T13:17:27;7.13;;;5.00;;
46391;SDS011;32098;49.448;7.904;2024-01-30T13:19:54;10.07;;;5.37;;
46391;SDS011;32098;49.448;7.904;2024-01-30T13:22:27;8.87;;;5.23;;
46391;SDS011;32098;49.448;7.904;2024-01-30T13:24:54;7.73;;;5.83;;
46391;SDS011;32098;49.448;7.904;2024-01-30T13:27:20;9.43;;;5.43;;
46391;SDS011;32098;49.448;7.904;2024-01-30T13:29:47;6.80;;;4.93;;
46391;SDS011;32098;49.448;7.904;2024-01-30T13:32:14;8.70;;;5.40;;
46391;SDS011;32098;49.448;7.904;2024-01-30T13:34:40;9.63;;;5.73;;
46391;SDS011;32098;49.448;7.904;2024-01-30T13:37:07;8.20;;;5.10;;
46391;SDS011;32098;49.448;7.904;2024-01-30T13:39:34;9.07;;;5.53;;
46391;SDS011;32098;49.448;7.904;2024-01-30T13:42:05;7.60;;;5.57;;
46391;SDS011;32098;49.448;7.904;2024-01-30T13:44:31;8.13;;;5.40;;
46391;SDS011;32098;49.448;7.904;2024-01-30T13:46:58;5.67;;;4.67;;
46391;SDS011;32098;49.448;7.904;2024-01-30T13:49:25;7.37;;;5.43;;
46391;SDS011;32098;49.448;7.904;2024-01-30T13:51:51;7.53;;;4.70;;
46391;SDS011;32098;49.448;7.904;2024-01-30T13:54:20;7.27;;;4.93;;
46391;SDS011;32098;49.448;7.904;2024-01-30T13:56:47;8.40;;;5.47;;
46391;SDS011;32098;49.448;7.904;2024-01-30T13:59:14;7.00;;;5.17;;
46391;SDS011;32098;49.448;7.904;2024-01-30T14:01:40;9.60;;;5.30;;
46391;SDS011;32098;49.448;7.904;2024-01-30T14:04:07;7.07;;;5.20;;
46391;SDS011;32098;49.448;7.904;2024-01-30T14:06:38;7.20;;;4.93;;
46391;SDS011;32098;49.448;7.904;2024-01-30T14:09:15;7.60;;;5.23;;
46391;SDS011;32098;49.448;7.904;2024-01-30T14:11:42;7.77;;;5.40;;
46391;SDS011;32098;49.448;7.904;2024-01-30T14:14:09;10.63;;;5.80;;
46391;SDS011;32098;49.448;7.904;2024-01-30T14:16:36;9.03;;;6.37;;
46391;SDS011;32098;49.448;7.904;2024-01-30T14:19:02;9.40;;;6.97;;
46391;SDS011;32098;49.448;7.904;2024-01-30T14:21:29;11.53;;;6.83;;
46391;SDS011;32098;49.448;7.904;2024-01-30T14:23:55;11.03;;;7.07;;
46391;SDS011;32098;49.448;7.904;2024-01-30T14:26:22;12.60;;;7.33;;
46391;SDS011;32098;49.448;7.904;2024-01-30T14:28:49;10.07;;;6.03;;
46391;SDS011;32098;49.448;7.904;2024-01-30T14:31:15;9.93;;;6.80;;
46391;SDS011;32098;49.448;7.904;2024-01-30T14:33:45;13.23;;;7.87;;
46391;SDS011;32098;49.448;7.904;2024-01-30T14:36:11;9.87;;;6.27;;
46391;SDS011;32098;49.448;7.904;2024-01-30T14:38:38;9.27;;;6.43;;
46391;SDS011;32098;49.448;7.904;2024-01-30T14:41:04;10.70;;;6.33;;
46391;SDS011;32098;49.448;7.904;2024-01-30T14:43:32;7.00;;;5.37;;